sensor_id;sensor_type;location;lat;lon;timestamp;pressure;altitude;pressure_sealevel;temperature;humidity
72116;BME280;59991;52.140;5.428;2022-11-14T00:00:31;101718.38;;;4.12;88.81
72116;BME280;59991;52.140;5.428;2022-11-14T00:01:12;101719.34;;;4.16;88.62
72116;BME280;59991;52.140;5.428;2022-11-14T00:01:55;101708.38;;;4.13;88.56
72116;BME280;59991;52.140;5.428;2022-11-14T00:02:40;101716.97;;;4.15;88.90
72116;BME280;59991;52.140;5.428;2022-11-14T00:03:20;101712.34;;;4.15;88.83
72116;BME280;59991;52.140;5.428;2022-11-14T00:04:08;101708.06;;;4.14;89.03
72116;BME280;59991;52.140;5.428;2022-11-14T00:05:09;101713.16;;;4.16;89.77
72116;BME280;59991;52.140;5.428;2022-11-14T00:05:54;101705.38;;;4.14;89.35
72116;BME280;59991;52.140;5.428;2022-11-14T00:06:47;101699.16;;;4.14;89.24
72116;BME280;59991;52.140;5.428;2022-11-14T00:07:31;101704.56;;;4.14;89.46
72116;BME280;59991;52.140;5.428;2022-11-14T00:08:18;101710.31;;;4.21;89.49
72116;BME280;59991;52.140;5.428;2022-11-14T00:09:23;101702.66;;;4.14;89.52
72116;BME280;59991;52.140;5.428;2022-11-14T00:10:08;101690.75;;;4.15;89.73
72116;BME280;59991;52.140;5.428;2022-11-14T00:10:49;101700.75;;;4.15;89.89
72116;BME280;59991;52.140;5.428;2022-11-14T00:11:23;101691.25;;;4.18;89.58
72116;BME280;59991;52.140;5.428;2022-11-14T00:12:08;101693.94;;;4.18;89.73
72116;BME280;59991;52.140;5.428;2022-11-14T00:12:56;101693.16;;;4.17;89.41
72116;BME280;59991;52.140;5.428;2022-11-14T00:13:38;101689.97;;;4.15;89.51
72116;BME280;59991;52.140;5.428;2022-11-14T00:14:15;101695.06;;;4.16;89.85
72116;BME280;59991;52.140;5.428;2022-11-14T00:14:58;101701.25;;;4.17;89.60
72116;BME280;59991;52.140;5.428;2022-11-14T00:15:38;101700.13;;;4.18;89.67
72116;BME280;59991;52.140;5.428;2022-11-14T00:16:24;101700.13;;;4.18;89.41
72116;BME280;59991;52.140;5.428;2022-11-14T00:17:03;101696.94;;;4.16;89.26
72116;BME280;59991;52.140;5.428;2022-11-14T00:17:58;101711.56;;;4.24;89.19
72116;BME280;59991;52.140;5.428;2022-11-14T00:18:34;101705.53;;;4.18;88.73
72116;BME280;59991;52.140;5.428;2022-11-14T00:19:37;101706.97;;;4.24;89.07
72116;BME280;59991;52.140;5.428;2022-11-14T00:20:14;101695.84;;;4.17;88.96
72116;BME280;59991;52.140;5.428;2022-11-14T00:20:59;101698.53;;;4.17;88.99
72116;BME280;59991;52.140;5.428;2022-11-14T00:21:48;101702.53;;;4.20;88.88
72116;BME280;59991;52.140;5.428;2022-11-14T00:22:45;101703.16;;;4.16;89.40
72116;BME280;59991;52.140;5.428;2022-11-14T00:23:23;101703.94;;;4.17;88.89
72116;BME280;59991;52.140;5.428;2022-11-14T00:23:56;101700.44;;;4.16;89.21
72116;BME280;59991;52.140;5.428;2022-11-14T00:24:34;101696.94;;;4.16;89.17
72116;BME280;59991;52.140;5.428;2022-11-14T00:25:20;101700.44;;;4.16;88.60
72116;BME280;59991;52.140;5.428;2022-11-14T00:26:05;101703.16;;;4.16;88.50
72116;BME280;59991;52.140;5.428;2022-11-14T00:26:58;101698.53;;;4.17;88.98
72116;BME280;59991;52.140;5.428;2022-11-14T00:27:42;101692.66;;;4.15;88.94
72116;BME280;59991;52.140;5.428;2022-11-14T00:28:48;101691.06;;;4.14;89.39
72116;BME280;59991;52.140;5.428;2022-11-14T00:29:36;101697.75;;;4.16;88.53
72116;BME280;59991;52.140;5.428;2022-11-14T00:30:25;101698.38;;;4.13;89.12
72116;BME280;59991;52.140;5.428;2022-11-14T00:31:13;101692.19;;;4.13;88.95
72116;BME280;59991;52.140;5.428;2022-11-14T00:31:52;101698.38;;;4.13;88.60
72116;BME280;59991;52.140;5.428;2022-11-14T00:32:40;101697.56;;;4.13;88.75
72116;BME280;59991;52.140;5.428;2022-11-14T00:33:24;101696.66;;;4.18;88.43
72116;BME280;59991;52.140;5.428;2022-11-14T00:34:03;101696.94;;;4.16;89.19
72116;BME280;59991;52.140;5.428;2022-11-14T00:35:35;101698.25;;;4.19;88.59
72116;BME280;59991;52.140;5.428;2022-11-14T00:36:13;101694.25;;;4.16;88.51
72116;BME280;59991;52.140;5.428;2022-11-14T00:37:14;101695.97;;;4.12;88.71
72116;BME280;59991;52.140;5.428;2022-11-14T00:37:53;101694.38;;;4.11;88.51
72116;BME280;59991;52.140;5.428;2022-11-14T00:38:31;101693.59;;;4.10;88.73
72116;BME280;59991;52.140;5.428;2022-11-14T00:39:17;101698.06;;;4.15;88.93
72116;BME280;59991;52.140;5.428;2022-11-14T00:39:54;101693.59;;;4.10;88.86
72116;BME280;59991;52.140;5.428;2022-11-14T00:40:40;101706.16;;;4.15;88.69
72116;BME280;59991;52.140;5.428;2022-11-14T00:41:28;101709.66;;;4.15;88.81
72116;BME280;59991;52.140;5.428;2022-11-14T00:42:18;101697.09;;;4.11;89.05
72116;BME280;59991;52.140;5.428;2022-11-14T00:43:02;101700.09;;;4.09;88.94
72116;BME280;59991;52.140;5.428;2022-11-14T00:43:44;101702.00;;;4.09;89.09
72116;BME280;59991;52.140;5.428;2022-11-14T00:44:30;101703.41;;;4.06;89.34
72116;BME280;59991;52.140;5.428;2022-11-14T00:45:16;101703.41;;;4.06;89.71
72116;BME280;59991;52.140;5.428;2022-11-14T00:45:57;101694.81;;;4.04;90.02
72116;BME280;59991;52.140;5.428;2022-11-14T00:46:57;101704.06;;;4.03;89.63
72116;BME280;59991;52.140;5.428;2022-11-14T00:47:43;101705.63;;;4.04;90.02
72116;BME280;59991;52.140;5.428;2022-11-14T00:48:20;101705.16;;;4.02;89.79
72116;BME280;59991;52.140;5.428;2022-11-14T00:49:08;101703.88;;;4.00;89.38
72116;BME280;59991;52.140;5.428;2022-11-14T00:49:54;101703.56;;;4.01;89.85
72116;BME280;59991;52.140;5.428;2022-11-14T00:50:42;101696.09;;;3.98;89.85
72116;BME280;59991;52.140;5.428;2022-11-14T00:51:38;101695.31;;;3.98;90.13
72116;BME280;59991;52.140;5.428;2022-11-14T00:52:31;101701.97;;;4.00;89.90
72116;BME280;59991;52.140;5.428;2022-11-14T00:53:31;101697.06;;;4.02;89.76
72116;BME280;59991;52.140;5.428;2022-11-14T00:54:23;101704.84;;;4.04;90.12
72116;BME280;59991;52.140;5.428;2022-11-14T00:55:31;101697.69;;;3.99;90.09
72116;BME280;59991;52.140;5.428;2022-11-14T00:56:17;101691.50;;;3.99;90.03
72116;BME280;59991;52.140;5.428;2022-11-14T00:57:07;101693.28;;;4.03;90.26
72116;BME280;59991;52.140;5.428;2022-11-14T00:58:01;101686.91;;;3.99;90.07
72116;BME280;59991;52.140;5.428;2022-11-14T00:58:45;101683.72;;;3.97;90.37
72116;BME280;59991;52.140;5.428;2022-11-14T00:59:23;101691.50;;;3.99;90.22
72116;BME280;59991;52.140;5.428;2022-11-14T01:00:27;101691.69;;;4.02;90.09
72116;BME280;59991;52.140;5.428;2022-11-14T01:01:13;101679.09;;;3.98;90.16
72116;BME280;59991;52.140;5.428;2022-11-14T01:01:53;101679.09;;;3.98;90.12
72116;BME280;59991;52.140;5.428;2022-11-14T01:02:43;101687.38;;;4.01;90.62
72116;BME280;59991;52.140;5.428;2022-11-14T01:03:21;101681.50;;;3.99;90.40
72116;BME280;59991;52.140;5.428;2022-11-14T01:04:03;101681.00;;;3.97;90.69
72116;BME280;59991;52.140;5.428;2022-11-14T01:04:44;101673.53;;;3.94;90.49
72116;BME280;59991;52.140;5.428;2022-11-14T01:05:26;101674.34;;;3.95;90.47
72116;BME280;59991;52.140;5.428;2022-11-14T01:06:10;101669.25;;;3.93;90.41
72116;BME280;59991;52.140;5.428;2022-11-14T01:06:48;101672.44;;;3.95;90.77
72116;BME280;59991;52.140;5.428;2022-11-14T01:07:31;101668.75;;;3.91;90.66
72116;BME280;59991;52.140;5.428;2022-11-14T01:08:30;101673.53;;;3.94;90.61
72116;BME280;59991;52.140;5.428;2022-11-14T01:09:18;101676.84;;;3.91;90.46
72116;BME280;59991;52.140;5.428;2022-11-14T01:10:01;101666.38;;;3.90;90.13
72116;BME280;59991;52.140;5.428;2022-11-14T01:11:07;101673.53;;;3.94;90.89
72116;BME280;59991;52.140;5.428;2022-11-14T01:11:44;101664.94;;;3.92;90.50
72116;BME280;59991;52.140;5.428;2022-11-14T01:12:21;101664.34;;;3.95;90.85
72116;BME280;59991;52.140;5.428;2022-11-14T01:13:00;101665.44;;;3.94;90.87
72116;BME280;59991;52.140;5.428;2022-11-14T01:13:34;101665.13;;;3.96;90.69
72116;BME280;59991;52.140;5.428;2022-11-14T01:14:14;101665.44;;;3.94;90.93
72116;BME280;59991;52.140;5.428;2022-11-14T01:14:55;101664.34;;;3.95;90.68
72116;BME280;59991;52.140;5.428;2022-11-14T01:15:31;101668.94;;;3.95;91.04
72116;BME280;59991;52.140;5.428;2022-11-14T01:16:16;101660.66;;;3.91;90.60
72116;BME280;59991;52.140;5.428;2022-11-14T01:16:52;101658.28;;;3.90;90.85
72116;BME280;59991;52.140;5.428;2022-11-14T01:17:46;101659.88;;;3.91;90.70
72116;BME280;59991;52.140;5.428;2022-11-14T01:18:46;101661.47;;;3.92;90.69
72116;BME280;59991;52.140;5.428;2022-11-14T01:19:42;101653.38;;;3.92;90.46
72116;BME280;59991;52.140;5.428;2022-11-14T01:20:18;101657.16;;;3.91;90.81
72116;BME280;59991;52.140;5.428;2022-11-14T01:21:09;101657.16;;;3.91;90.81
72116;BME280;59991;52.140;5.428;2022-11-14T01:21:54;101652.38;;;3.88;90.34
72116;BME280;59991;52.140;5.428;2022-11-14T01:22:42;101659.38;;;3.89;90.83
72116;BME280;59991;52.140;5.428;2022-11-14T01:23:21;101659.38;;;3.89;90.76
72116;BME280;59991;52.140;5.428;2022-11-14T01:23:58;101655.56;;;3.90;90.83
72116;BME280;59991;52.140;5.428;2022-11-14T01:24:36;101656.38;;;3.90;90.84
72116;BME280;59991;52.140;5.428;2022-11-14T01:25:21;101647.97;;;3.92;90.82
72116;BME280;59991;52.140;5.428;2022-11-14T01:25:54;101665.94;;;3.96;90.60
72116;BME280;59991;52.140;5.428;2022-11-14T01:26:35;101661.94;;;3.94;90.52
72116;BME280;59991;52.140;5.428;2022-11-14T01:27:19;101648.59;;;3.89;90.66
72116;BME280;59991;52.140;5.428;2022-11-14T01:28:19;101647.78;;;3.88;90.88
72116;BME280;59991;52.140;5.428;2022-11-14T01:29:10;101640.19;;;3.90;90.52
72116;BME280;59991;52.140;5.428;2022-11-14T01:29:44;101645.09;;;3.88;90.61
72116;BME280;59991;52.140;5.428;2022-11-14T01:30:19;101643.50;;;3.87;90.91
72116;BME280;59991;52.140;5.428;2022-11-14T01:30:54;101636.06;;;3.84;90.53
72116;BME280;59991;52.140;5.428;2022-11-14T01:31:34;101638.75;;;3.84;91.09
72116;BME280;59991;52.140;5.428;2022-11-14T01:32:21;101646.69;;;3.89;90.61
72116;BME280;59991;52.140;5.428;2022-11-14T01:33:12;101641.44;;;3.84;90.84
72116;BME280;59991;52.140;5.428;2022-11-14T01:33:50;101638.56;;;3.80;91.25
72116;BME280;59991;52.140;5.428;2022-11-14T01:34:33;101620.00;;;3.79;91.36
72116;BME280;59991;52.140;5.428;2022-11-14T01:35:17;101631.59;;;3.79;91.09
72116;BME280;59991;52.140;5.428;2022-11-14T01:35:58;101632.38;;;3.80;91.00
72116;BME280;59991;52.140;5.428;2022-11-14T01:36:43;101631.28;;;3.81;90.93
72116;BME280;59991;52.140;5.428;2022-11-14T01:37:31;101628.88;;;3.79;90.92
72116;BME280;59991;52.140;5.428;2022-11-14T01:38:22;101625.09;;;3.80;90.88
72116;BME280;59991;52.140;5.428;2022-11-14T01:39:03;101620.00;;;3.79;91.08
72116;BME280;59991;52.140;5.428;2022-11-14T01:39:43;101626.50;;;3.78;91.07
72116;BME280;59991;52.140;5.428;2022-11-14T01:40:22;101627.28;;;3.78;91.24
72116;BME280;59991;52.140;5.428;2022-11-14T01:41:05;101619.22;;;3.78;90.82
72116;BME280;59991;52.140;5.428;2022-11-14T01:41:39;101621.09;;;3.78;91.15
72116;BME280;59991;52.140;5.428;2022-11-14T01:42:18;101611.72;;;3.75;91.15
72116;BME280;59991;52.140;5.428;2022-11-14T01:43:57;101616.34;;;3.75;91.49
72116;BME280;59991;52.140;5.428;2022-11-14T01:44:47;101611.25;;;3.73;91.20
72116;BME280;59991;52.140;5.428;2022-11-14T01:46:35;101614.75;;;3.74;91.38
72116;BME280;59991;52.140;5.428;2022-11-14T01:47:17;101623.31;;;3.76;91.63
72116;BME280;59991;52.140;5.428;2022-11-14T01:47:55;101616.47;;;3.70;91.63
72116;BME280;59991;52.140;5.428;2022-11-14T01:48:43;101618.53;;;3.73;91.44
72116;BME280;59991;52.140;5.428;2022-11-14T01:49:28;101623.94;;;3.73;91.23
72116;BME280;59991;52.140;5.428;2022-11-14T01:50:04;101618.38;;;3.69;91.59
72116;BME280;59991;52.140;5.428;2022-11-14T01:51:04;101621.25;;;3.73;91.04
72116;BME280;59991;52.140;5.428;2022-11-14T01:52:35;101612.47;;;3.67;91.41
72116;BME280;59991;52.140;5.428;2022-11-14T01:53:16;101602.50;;;3.68;91.48
72116;BME280;59991;52.140;5.428;2022-11-14T01:54:00;101613.75;;;3.70;91.12
72116;BME280;59991;52.140;5.428;2022-11-14T01:54:42;101602.97;;;3.70;90.98
72116;BME280;59991;52.140;5.428;2022-11-14T01:55:23;101607.75;;;3.73;91.11
72116;BME280;59991;52.140;5.428;2022-11-14T01:56:03;101601.88;;;3.71;91.10
72116;BME280;59991;52.140;5.428;2022-11-14T01:56:48;101599.66;;;3.73;90.92
72116;BME280;59991;52.140;5.428;2022-11-14T01:57:33;101601.88;;;3.71;90.82
72116;BME280;59991;52.140;5.428;2022-11-14T01:58:10;101594.09;;;3.69;90.71
72116;BME280;59991;52.140;5.428;2022-11-14T01:59:01;101595.19;;;3.68;90.81
72116;BME280;59991;52.140;5.428;2022-11-14T01:59:50;101602.34;;;3.73;90.93
72116;BME280;59991;52.140;5.428;2022-11-14T02:00:31;101596.16;;;3.72;90.96
72116;BME280;59991;52.140;5.428;2022-11-14T02:01:12;101593.59;;;3.67;91.02
72116;BME280;59991;52.140;5.428;2022-11-14T02:02:27;101593.59;;;3.67;91.02
72116;BME280;59991;52.140;5.428;2022-11-14T02:03:11;101588.84;;;3.64;91.18
72116;BME280;59991;52.140;5.428;2022-11-14T02:03:50;101590.59;;;3.69;90.80
72116;BME280;59991;52.140;5.428;2022-11-14T02:04:34;101580.91;;;3.68;90.90
72116;BME280;59991;52.140;5.428;2022-11-14T02:05:14;101582.81;;;3.67;91.19
72116;BME280;59991;52.140;5.428;2022-11-14T02:05:54;101578.38;;;3.71;90.48
72116;BME280;59991;52.140;5.428;2022-11-14T02:06:37;101583.78;;;3.71;91.11
72116;BME280;59991;52.140;5.428;2022-11-14T02:07:15;101586.78;;;3.70;90.96
72116;BME280;59991;52.140;5.428;2022-11-14T02:07:57;101586.16;;;3.73;91.02
72116;BME280;59991;52.140;5.428;2022-11-14T02:08:52;101585.06;;;3.74;90.63
72116;BME280;59991;52.140;5.428;2022-11-14T02:09:37;101583.16;;;3.74;90.61
72116;BME280;59991;52.140;5.428;2022-11-14T02:10:22;101589.53;;;3.78;90.75
72116;BME280;59991;52.140;5.428;2022-11-14T02:11:09;101580.47;;;3.74;90.94
72116;BME280;59991;52.140;5.428;2022-11-14T02:12:00;101573.00;;;3.71;90.46
72116;BME280;59991;52.140;5.428;2022-11-14T02:12:36;101583.16;;;3.74;90.83
72116;BME280;59991;52.140;5.428;2022-11-14T02:13:17;101579.19;;;3.72;90.45
72116;BME280;59991;52.140;5.428;2022-11-14T02:14:10;101573.31;;;3.70;90.27
72116;BME280;59991;52.140;5.428;2022-11-14T02:14:54;101586.47;;;3.71;90.63
72116;BME280;59991;52.140;5.428;2022-11-14T02:15:34;101584.28;;;3.73;90.66
72116;BME280;59991;52.140;5.428;2022-11-14T02:16:12;101578.38;;;3.71;90.75
72116;BME280;59991;52.140;5.428;2022-11-14T02:16:53;101575.38;;;3.73;90.93
72116;BME280;59991;52.140;5.428;2022-11-14T02:17:53;101571.88;;;3.72;90.61
72116;BME280;59991;52.140;5.428;2022-11-14T02:18:32;101576.50;;;3.72;90.15
72116;BME280;59991;52.140;5.428;2022-11-14T02:19:08;101583.16;;;3.74;90.12
72116;BME280;59991;52.140;5.428;2022-11-14T02:19:53;101576.19;;;3.73;90.01
72116;BME280;59991;52.140;5.428;2022-11-14T02:20:39;101583.47;;;3.73;90.01
72116;BME280;59991;52.140;5.428;2022-11-14T02:21:18;101583.66;;;3.76;90.02
72116;BME280;59991;52.140;5.428;2022-11-14T02:21:52;101576.50;;;3.72;89.88
72116;BME280;59991;52.140;5.428;2022-11-14T02:22:30;101581.41;;;3.70;89.92
72116;BME280;59991;52.140;5.428;2022-11-14T02:23:29;101580.44;;;3.66;90.15
72116;BME280;59991;52.140;5.428;2022-11-14T02:24:12;101580.44;;;3.66;90.42
72116;BME280;59991;52.140;5.428;2022-11-14T02:24:49;101570.28;;;3.63;90.48
72116;BME280;59991;52.140;5.428;2022-11-14T02:25:29;101571.38;;;3.62;90.71
72116;BME280;59991;52.140;5.428;2022-11-14T02:26:20;101574.09;;;3.62;90.66
72116;BME280;59991;52.140;5.428;2022-11-14T02:26:56;101575.69;;;3.63;90.38
72116;BME280;59991;52.140;5.428;2022-11-14T02:27:41;101575.81;;;3.66;90.34
72116;BME280;59991;52.140;5.428;2022-11-14T02:28:16;101575.38;;;3.64;90.51
72116;BME280;59991;52.140;5.428;2022-11-14T02:29:05;101570.28;;;3.63;90.21
72116;BME280;59991;52.140;5.428;2022-11-14T02:29:45;101570.28;;;3.63;90.20
72116;BME280;59991;52.140;5.428;2022-11-14T02:30:25;101571.09;;;3.63;90.02
72116;BME280;59991;52.140;5.428;2022-11-14T02:31:10;101568.69;;;3.62;90.34
72116;BME280;59991;52.140;5.428;2022-11-14T02:31:52;101564.91;;;3.63;90.12
72116;BME280;59991;52.140;5.428;2022-11-14T02:32:28;101563.31;;;3.62;90.26
72116;BME280;59991;52.140;5.428;2022-11-14T02:33:23;101565.19;;;3.61;90.12
72116;BME280;59991;52.140;5.428;2022-11-14T02:33:57;101564.09;;;3.62;89.88
72116;BME280;59991;52.140;5.428;2022-11-14T02:34:39;101567.91;;;3.61;89.98
72116;BME280;59991;52.140;5.428;2022-11-14T02:35:16;101568.69;;;3.62;89.69
72116;BME280;59991;52.140;5.428;2022-11-14T02:36:02;101558.53;;;3.59;90.13
72116;BME280;59991;52.140;5.428;2022-11-14T02:36:42;101567.91;;;3.61;89.66
72116;BME280;59991;52.140;5.428;2022-11-14T02:37:16;101559.31;;;3.59;89.69
72116;BME280;59991;52.140;5.428;2022-11-14T02:37:56;101560.75;;;3.57;89.56
72116;BME280;59991;52.140;5.428;2022-11-14T02:38:37;101562.63;;;3.56;89.54
72116;BME280;59991;52.140;5.428;2022-11-14T02:39:14;101557.25;;;3.56;89.51
72116;BME280;59991;52.140;5.428;2022-11-14T02:39:55;101561.03;;;3.55;89.86
72116;BME280;59991;52.140;5.428;2022-11-14T02:40:32;101559.44;;;3.54;89.57
72116;BME280;59991;52.140;5.428;2022-11-14T02:41:27;101569.31;;;3.59;89.66
72116;BME280;59991;52.140;5.428;2022-11-14T02:42:05;101561.53;;;3.57;89.85
72116;BME280;59991;52.140;5.428;2022-11-14T02:42:45;101559.28;;;3.51;89.73
72116;BME280;59991;52.140;5.428;2022-11-14T02:43:24;101561.19;;;3.50;89.50
72116;BME280;59991;52.140;5.428;2022-11-14T02:44:13;101566.56;;;3.50;90.28
72116;BME280;59991;52.140;5.428;2022-11-14T02:44:58;101559.59;;;3.49;89.96
72116;BME280;59991;52.140;5.428;2022-11-14T02:45:46;101554.03;;;3.45;89.89
72116;BME280;59991;52.140;5.428;2022-11-14T02:46:27;101563.69;;;3.46;90.22
72116;BME280;59991;52.140;5.428;2022-11-14T02:47:01;101559.75;;;3.44;90.23
72116;BME280;59991;52.140;5.428;2022-11-14T02:47:49;101558.47;;;3.41;90.14
72116;BME280;59991;52.140;5.428;2022-11-14T02:48:42;101555.28;;;3.39;90.41
72116;BME280;59991;52.140;5.428;2022-11-14T02:49:24;101559.75;;;3.44;90.22
72116;BME280;59991;52.140;5.428;2022-11-14T02:50:04;101559.25;;;3.42;90.16
72116;BME280;59991;52.140;5.428;2022-11-14T02:50:43;101560.84;;;3.43;90.57
72116;BME280;59991;52.140;5.428;2022-11-14T02:51:22;101549.28;;;3.42;90.45
72116;BME280;59991;52.140;5.428;2022-11-14T02:52:06;101551.19;;;3.42;90.38
72116;BME280;59991;52.140;5.428;2022-11-14T02:52:48;101549.28;;;3.42;90.54
72116;BME280;59991;52.140;5.428;2022-11-14T02:53:30;101550.38;;;3.41;90.49
72116;BME280;59991;52.140;5.428;2022-11-14T02:54:04;101553.06;;;3.41;90.44
72116;BME280;59991;52.140;5.428;2022-11-14T02:54:46;101564.03;;;3.45;90.56
72116;BME280;59991;52.140;5.428;2022-11-14T02:55:27;101557.84;;;3.44;90.21
72116;BME280;59991;52.140;5.428;2022-11-14T02:56:06;101552.09;;;3.37;90.45
72116;BME280;59991;52.140;5.428;2022-11-14T02:56:44;101552.91;;;3.38;90.50
72116;BME280;59991;52.140;5.428;2022-11-14T02:57:18;101554.78;;;3.37;90.38
72116;BME280;59991;52.140;5.428;2022-11-14T02:58:07;101551.00;;;3.38;90.44
72116;BME280;59991;52.140;5.428;2022-11-14T02:58:46;101554.50;;;3.39;90.39
72116;BME280;59991;52.140;5.428;2022-11-14T02:59:22;101546.41;;;3.39;89.65
72116;BME280;59991;52.140;5.428;2022-11-14T02:59:59;101549.88;;;3.39;90.30
72116;BME280;59991;52.140;5.428;2022-11-14T03:01:12;101554.97;;;3.41;89.88
72116;BME280;59991;52.140;5.428;2022-11-14T03:02:10;101546.09;;;3.40;89.90
72116;BME280;59991;52.140;5.428;2022-11-14T03:02:49;101544.50;;;3.39;89.70
72116;BME280;59991;52.140;5.428;2022-11-14T03:03:29;101548.31;;;3.38;89.71
72116;BME280;59991;52.140;5.428;2022-11-14T03:04:07;101557.38;;;3.42;89.45
72116;BME280;59991;52.140;5.428;2022-11-14T03:04:47;101555.28;;;3.39;89.28
72116;BME280;59991;52.140;5.428;2022-11-14T03:05:42;101555.28;;;3.39;89.35
72116;BME280;59991;52.140;5.428;2022-11-14T03:06:27;101556.38;;;3.38;89.49
72116;BME280;59991;52.140;5.428;2022-11-14T03:07:10;101552.41;;;3.36;89.17
72116;BME280;59991;52.140;5.428;2022-11-14T03:07:45;101554.31;;;3.35;89.69
72116;BME280;59991;52.140;5.428;2022-11-14T03:08:23;101560.81;;;3.34;89.26
72116;BME280;59991;52.140;5.428;2022-11-14T03:09:03;101556.50;;;3.33;89.50
72116;BME280;59991;52.140;5.428;2022-11-14T03:09:40;101557.63;;;3.32;89.41
72116;BME280;59991;52.140;5.428;2022-11-14T03:10:25;101551.13;;;3.33;89.39
72116;BME280;59991;52.140;5.428;2022-11-14T03:11:07;101548.44;;;3.33;89.10
72116;BME280;59991;52.140;5.428;2022-11-14T03:11:49;101551.13;;;3.33;89.21
72116;BME280;59991;52.140;5.428;2022-11-14T03:12:29;101543.97;;;3.29;89.13
72116;BME280;59991;52.140;5.428;2022-11-14T03:13:17;101552.84;;;3.29;89.05
72116;BME280;59991;52.140;5.428;2022-11-14T03:14:15;101544.44;;;3.31;89.23
72116;BME280;59991;52.140;5.428;2022-11-14T03:14:57;101536.19;;;3.27;89.07
72116;BME280;59991;52.140;5.428;2022-11-14T03:15:47;101548.41;;;3.25;88.74
72116;BME280;59991;52.140;5.428;2022-11-14T03:16:21;101546.50;;;3.25;88.82
72116;BME280;59991;52.140;5.428;2022-11-14T03:17:09;101544.13;;;3.24;88.77
72116;BME280;59991;52.140;5.428;2022-11-14T03:17:57;101534.13;;;3.24;88.89
72116;BME280;59991;52.140;5.428;2022-11-14T03:18:41;101541.72;;;3.22;88.72
72116;BME280;59991;52.140;5.428;2022-11-14T03:19:18;101538.53;;;3.20;88.74
72116;BME280;59991;52.140;5.428;2022-11-14T03:20:03;101535.84;;;3.20;88.79
72116;BME280;59991;52.140;5.428;2022-11-14T03:20:46;101537.44;;;3.21;88.92
72116;BME280;59991;52.140;5.428;2022-11-14T03:21:30;101535.84;;;3.20;88.62
72116;BME280;59991;52.140;5.428;2022-11-14T03:22:12;101531.88;;;3.18;88.42
72116;BME280;59991;52.140;5.428;2022-11-14T03:22:50;101535.66;;;3.17;88.62
72116;BME280;59991;52.140;5.428;2022-11-14T03:23:32;101541.56;;;3.19;88.42
72116;BME280;59991;52.140;5.428;2022-11-14T03:24:11;101527.91;;;3.15;88.53
72116;BME280;59991;52.140;5.428;2022-11-14T03:24:47;101524.72;;;3.13;88.53
72116;BME280;59991;52.140;5.428;2022-11-14T03:25:27;101527.41;;;3.13;88.50
72116;BME280;59991;52.140;5.428;2022-11-14T03:26:08;101523.91;;;3.12;88.56
72116;BME280;59991;52.140;5.428;2022-11-14T03:26:58;101526.59;;;3.12;88.53
72116;BME280;59991;52.140;5.428;2022-11-14T03:27:43;101528.19;;;3.13;88.58
72116;BME280;59991;52.140;5.428;2022-11-14T03:28:43;101531.81;;;3.09;88.39
72116;BME280;59991;52.140;5.428;2022-11-14T03:29:29;101527.72;;;3.11;88.52
72116;BME280;59991;52.140;5.428;2022-11-14T03:30:11;101528.31;;;3.08;88.47
72116;BME280;59991;52.140;5.428;2022-11-14T03:31:01;101524.38;;;3.06;88.43
72116;BME280;59991;52.140;5.428;2022-11-14T03:31:49;101524.38;;;3.06;88.38
72116;BME280;59991;52.140;5.428;2022-11-14T03:32:37;101533.25;;;3.06;88.47
72116;BME280;59991;52.140;5.428;2022-11-14T03:33:17;101534.38;;;3.05;88.72
72116;BME280;59991;52.140;5.428;2022-11-14T03:33:53;101535.00;;;3.11;88.46
72116;BME280;59991;52.140;5.428;2022-11-14T03:34:39;101531.19;;;3.03;88.53
72116;BME280;59991;52.140;5.428;2022-11-14T03:35:26;101528.97;;;3.05;88.30
72116;BME280;59991;52.140;5.428;2022-11-14T03:36:06;101525.00;;;3.03;88.52
72116;BME280;59991;52.140;5.428;2022-11-14T03:36:46;101523.09;;;3.03;88.23
72116;BME280;59991;52.140;5.428;2022-11-14T03:37:31;101519.59;;;3.03;88.55
72116;BME280;59991;52.140;5.428;2022-11-14T03:38:18;101522.91;;;3.00;88.44
72116;BME280;59991;52.140;5.428;2022-11-14T03:38:56;101521.81;;;3.01;88.54
72116;BME280;59991;52.140;5.428;2022-11-14T03:39:43;101516.25;;;2.97;88.24
72116;BME280;59991;52.140;5.428;2022-11-14T03:40:20;101508.94;;;2.98;88.56
72116;BME280;59991;52.140;5.428;2022-11-14T03:41:12;101516.25;;;2.97;88.34
72116;BME280;59991;52.140;5.428;2022-11-14T03:41:56;101512.75;;;2.97;88.63
72116;BME280;59991;52.140;5.428;2022-11-14T03:42:45;101508.78;;;2.94;88.49
72116;BME280;59991;52.140;5.428;2022-11-14T03:43:24;101508.47;;;2.96;88.45
72116;BME280;59991;52.140;5.428;2022-11-14T03:44:06;101509.25;;;2.96;88.02
72116;BME280;59991;52.140;5.428;2022-11-14T03:45:03;101504.47;;;2.93;88.19
72116;BME280;59991;52.140;5.428;2022-11-14T03:45:47;101512.88;;;2.92;88.16
72116;BME280;59991;52.140;5.428;2022-11-14T03:46:33;101509.38;;;2.91;88.33
72116;BME280;59991;52.140;5.428;2022-11-14T03:48:23;101511.78;;;2.93;88.17
72116;BME280;59991;52.140;5.428;2022-11-14T03:48:57;101503.19;;;2.91;88.26
72116;BME280;59991;52.140;5.428;2022-11-14T03:49:47;101516.06;;;2.94;88.20
72116;BME280;59991;52.140;5.428;2022-11-14T03:50:32;101496.88;;;2.87;87.83
72116;BME280;59991;52.140;5.428;2022-11-14T03:51:11;101511.78;;;2.93;88.21
72116;BME280;59991;52.140;5.428;2022-11-14T03:51:57;101517.16;;;2.93;88.23
72116;BME280;59991;52.140;5.428;2022-11-14T03:52:35;101496.06;;;2.86;88.49
72116;BME280;59991;52.140;5.428;2022-11-14T03:53:25;101506.53;;;2.88;88.10
72116;BME280;59991;52.140;5.428;2022-11-14T03:54:11;101505.75;;;2.87;88.10
72116;BME280;59991;52.140;5.428;2022-11-14T03:55:07;101502.25;;;2.87;88.09
72116;BME280;59991;52.140;5.428;2022-11-14T03:56:01;101504.31;;;2.90;88.16
72116;BME280;59991;52.140;5.428;2022-11-14T03:56:46;101506.53;;;2.88;87.96
72116;BME280;59991;52.140;5.428;2022-11-14T03:57:27;101507.78;;;2.90;88.59
72116;BME280;59991;52.140;5.428;2022-11-14T03:58:11;101500.66;;;2.86;88.57
72116;BME280;59991;52.140;5.428;2022-11-14T03:59:11;101511.59;;;2.89;88.62